Time,TemperatureF,DewpointF,PressureIn,WindDirection,WindDirectionDegrees,WindSpeedMPH,WindSpeedGustMPH,Humidity,HourlyPrecipIn,Conditions,Clouds,dailyrainin,SoftwareType,DateUTC
2013-01-03 00:24:00,34.9,35.0,30.13,SE,130,0.0,2.0,99,0.00,,,0.00,weatherlink.com 1.10,2013-01-03 05:24:00,
2013-01-03 00:39:00,34.7,35.0,30.14,SE,131,0.0,0.0,99,0.00,,,0.00,weatherlink.com 1.10,2013-01-03 05:39:00,
2013-01-03 00:54:00,34.5,34.0,30.12,ESE,120,0.0,3.0,98,0.00,,,0.00,weatherlink.com 1.10,2013-01-03 05:54:00,
2013-01-03 01:09:00,34.4,34.0,30.12,SSW,212,0.0,1.0,98,0.00,,,0.00,weatherlink.com 1.10,2013-01-03 06:09:00,
2013-01-03 01:24:00,34.4,34.0,30.13,SSW,211,0.0,1.0,99,0.00,,,0.00,weatherlink.com 1.10,2013-01-03 06:24:00,
2013-01-03 01:39:00,34.4,34.0,30.12,ESE,110,0.0,1.0,99,0.00,,,0.00,weatherlink.com 1.10,2013-01-03 06:39:00,
2013-01-03 01:54:00,34.3,34.0,30.12,ESE,112,0.0,1.0,99,0.00,,,0.00,weatherlink.com 1.10,2013-01-03 06:54:00,
2013-01-03 02:10:00,34.1,34.0,30.11,West,274,0.0,1.0,99,0.00,,,0.00,weatherlink.com 1.10,2013-01-03 07:10:00,
2013-01-03 02:34:00,34.1,34.0,30.12,West,271,0.0,1.0,99,0.00,,,0.00,weatherlink.com 1.10,2013-01-03 07:34:00,
2013-01-03 02:40:00,34.1,34.0,30.12,WNW,287,1.0,2.0,99,0.00,,,0.00,weatherlink.com 1.10,2013-01-03 07:40:00,
2013-01-03 02:55:00,34.1,34.0,30.13,WNW,287,1.0,1.0,99,0.00,,,0.00,weatherlink.com 1.10,2013-01-03 07:55:00,
2013-01-03 03:10:00,34.1,34.0,30.13,SE,127,0.0,1.0,99,0.00,,,0.00,weatherlink.com 1.10,2013-01-03 08:10:00,
2013-01-03 03:25:00,34.1,34.0,30.13,SE,127,0.0,1.0,99,0.00,,,0.00,weatherlink.com 1.10,2013-01-03 08:25:00,
2013-01-03 03:40:00,34.0,34.0,30.13,ESE,107,0.0,1.0,99,0.00,,,0.00,weatherlink.com 1.10,2013-01-03 08:40:00,
2013-01-03 03:55:00,34.0,34.0,30.12,SE,139,0.0,1.0,99,0.00,,,0.00,weatherlink.com 1.10,2013-01-03 08:55:00,
2013-01-03 04:10:00,34.0,34.0,30.13,SW,219,0.0,1.0,99,0.00,,,0.00,weatherlink.com 1.10,2013-01-03 09:10:00,
2013-01-03 04:25:00,34.1,34.0,30.14,SW,219,0.0,1.0,99,0.00,,,0.00,weatherlink.com 1.10,2013-01-03 09:25:00,
2013-01-03 04:40:00,34.1,34.0,30.14,SW,219,0.0,0.0,99,0.00,,,0.00,weatherlink.com 1.10,2013-01-03 09:40:00,
2013-01-03 04:55:00,34.0,34.0,30.13,SSE,158,0.0,1.0,99,0.00,,,0.00,weatherlink.com 1.10,2013-01-03 09:55:00,
2013-01-03 05:10:00,33.8,34.0,30.14,SSE,167,0.0,1.0,99,0.00,,,0.00,weatherlink.com 1.10,2013-01-03 10:10:00,
2013-01-03 05:25:00,33.8,34.0,30.14,SSE,155,0.0,1.0,99,0.00,,,0.00,weatherlink.com 1.10,2013-01-03 10:25:00,
2013-01-03 05:40:00,33.6,33.0,30.15,SSE,157,0.0,0.0,99,0.00,,,0.00,weatherlink.com 1.10,2013-01-03 10:40:00,
2013-01-03 05:55:00,33.5,33.0,30.15,SSE,156,0.0,1.0,99,0.00,,,0.00,weatherlink.com 1.10,2013-01-03 10:55:00,
2013-01-03 06:10:00,33.3,33.0,30.15,SSE,156,0.0,0.0,99,0.00,,,0.00,weatherlink.com 1.10,2013-01-03 11:10:00,
2013-01-03 06:25:00,33.1,33.0,30.15,SSE,157,0.0,0.0,99,0.00,,,0.00,weatherlink.com 1.10,2013-01-03 11:25:00,
2013-01-03 06:40:00,33.0,33.0,30.15,SSE,156,0.0,0.0,99,0.00,,,0.00,weatherlink.com 1.10,2013-01-03 11:40:00,
2013-01-03 06:55:00,33.0,33.0,30.16,SSE,156,0.0,1.0,99,0.00,,,0.00,weatherlink.com 1.10,2013-01-03 11:55:00,
2013-01-03 07:10:00,33.0,33.0,30.16,SSE,148,0.0,1.0,99,0.00,,,0.00,weatherlink.com 1.10,2013-01-03 12:10:00,
2013-01-03 07:25:00,33.1,33.0,30.16,SSE,148,0.0,0.0,99,0.00,,,0.00,weatherlink.com 1.10,2013-01-03 12:25:00,
2013-01-03 07:40:00,33.1,33.0,30.17,SSE,148,0.0,0.0,99,0.00,,,0.00,weatherlink.com 1.10,2013-01-03 12:40:00,
2013-01-03 07:55:00,33.0,33.0,30.17,SSE,148,0.0,0.0,99,0.00,,,0.00,weatherlink.com 1.10,2013-01-03 12:55:00,
2013-01-03 08:10:00,32.8,33.0,30.17,South,169,0.0,0.0,99,0.00,,,0.00,weatherlink.com 1.10,2013-01-03 13:10:00,
2013-01-03 08:25:00,32.8,33.0,30.17,South,170,0.0,0.0,99,0.00,,,0.00,weatherlink.com 1.10,2013-01-03 13:25:00,
2013-01-03 08:40:00,32.7,33.0,30.18,West,271,0.0,0.0,99,0.00,,,0.00,weatherlink.com 1.10,2013-01-03 13:40:00,
2013-01-03 08:55:00,32.4,32.0,30.18,West,267,0.0,1.0,98,0.00,,,0.00,weatherlink.com 1.10,2013-01-03 13:55:00,
2013-01-03 09:10:00,32.3,32.0,30.18,West,266,0.0,1.0,98,0.00,,,0.00,weatherlink.com 1.10,2013-01-03 14:10:00,
2013-01-03 09:25:00,32.3,32.0,30.19,West,266,0.0,1.0,99,0.00,,,0.00,weatherlink.com 1.10,2013-01-03 14:25:00,
2013-01-03 09:40:00,32.2,32.0,30.19,WSW,257,0.0,1.0,98,0.00,,,0.00,weatherlink.com 1.10,2013-01-03 14:40:00,
2013-01-03 09:55:00,32.1,32.0,30.20,WSW,257,0.0,0.0,98,0.00,,,0.00,weatherlink.com 1.10,2013-01-03 14:55:00,
2013-01-03 10:10:00,32.4,32.0,30.20,West,270,1.0,1.0,99,0.00,,,0.00,weatherlink.com 1.10,2013-01-03 15:10:00,
2013-01-03 10:25:00,32.7,33.0,30.21,NNW,330,0.0,2.0,99,0.00,,,0.00,weatherlink.com 1.10,2013-01-03 15:25:00,
2013-01-03 10:40:00,32.8,32.0,30.21,East,90,0.0,1.0,98,0.00,,,0.00,weatherlink.com 1.10,2013-01-03 15:40:00,
2013-01-03 10:55:00,32.8,32.0,30.21,WSW,252,0.0,1.0,98,0.00,,,0.00,weatherlink.com 1.10,2013-01-03 15:55:00,
2013-01-03 11:10:00,33.1,33.0,30.21,SW,233,0.0,1.0,98,0.00,,,0.00,weatherlink.com 1.10,2013-01-03 16:10:00,
2013-01-03 11:25:00,33.4,33.0,30.21,WSW,256,1.0,1.0,98,0.00,,,0.00,weatherlink.com 1.10,2013-01-03 16:25:00,
2013-01-03 11:40:00,33.6,33.0,30.21,WSW,256,0.0,0.0,98,0.00,,,0.00,weatherlink.com 1.10,2013-01-03 16:40:00,
2013-01-03 11:55:00,33.9,33.0,30.21,WSW,249,0.0,2.0,98,0.00,,,0.00,weatherlink.com 1.10,2013-01-03 16:55:00,
2013-01-03 12:10:00,34.3,34.0,30.20,ESE,113,0.0,2.0,97,0.00,,,0.00,weatherlink.com 1.10,2013-01-03 17:10:00,
2013-01-03 12:25:00,34.7,34.0,30.20,ESE,121,0.0,1.0,96,0.00,,,0.00,weatherlink.com 1.10,2013-01-03 17:25:00,
2013-01-03 12:40:00,34.9,34.0,30.19,West,261,1.0,1.0,95,0.00,,,0.00,weatherlink.com 1.10,2013-01-03 17:40:00,
2013-01-03 12:55:00,35.3,34.0,30.19,SW,222,0.0,1.0,94,0.00,,,0.00,weatherlink.com 1.10,2013-01-03 17:55:00,
2013-01-03 13:10:00,35.5,33.0,30.19,WNW,287,1.0,1.0,91,0.00,,,0.00,weatherlink.com 1.10,2013-01-03 18:10:00,
2013-01-03 13:25:00,35.9,34.0,30.19,WNW,285,1.0,1.0,91,0.00,,,0.00,weatherlink.com 1.10,2013-01-03 18:25:00,
2013-01-03 13:40:00,36.2,34.0,30.19,NW,321,0.0,2.0,90,0.00,,,0.00,weatherlink.com 1.10,2013-01-03 18:40:00,
2013-01-03 13:56:00,36.4,33.0,30.19,WNW,291,0.0,2.0,87,0.00,,,0.00,weatherlink.com 1.10,2013-01-03 18:56:00,
2013-01-03 14:11:00,36.7,33.0,30.19,NW,317,0.0,2.0,85,0.00,,,0.00,weatherlink.com 1.10,2013-01-03 19:11:00,
2013-01-03 14:56:00,37.8,33.0,30.19,WNW,287,0.0,2.0,83,0.00,,,0.00,weatherlink.com 1.10,2013-01-03 19:56:00,
2013-01-03 15:11:00,37.5,33.0,30.20,West,281,0.0,2.0,83,0.00,,,0.00,weatherlink.com 1.10,2013-01-03 20:11:00,
2013-01-03 15:26:00,37.3,32.0,30.20,SW,228,0.0,2.0,82,0.00,,,0.00,weatherlink.com 1.10,2013-01-03 20:26:00,
2013-01-03 15:41:00,36.8,32.0,30.21,West,259,0.0,2.0,84,0.00,,,0.00,weatherlink.com 1.10,2013-01-03 20:41:00,
2013-01-03 15:56:00,36.3,32.0,30.21,SE,127,0.0,2.0,83,0.00,,,0.00,weatherlink.com 1.10,2013-01-03 20:56:00,
2013-01-03 16:11:00,36.0,31.0,30.22,WNW,288,0.0,1.0,83,0.00,,,0.00,weatherlink.com 1.10,2013-01-03 21:11:00,
2013-01-03 16:26:00,35.7,31.0,30.22,WNW,287,0.0,1.0,84,0.00,,,0.00,weatherlink.com 1.10,2013-01-03 21:26:00,
2013-01-03 16:41:00,35.3,31.0,30.23,SE,142,0.0,1.0,83,0.00,,,0.00,weatherlink.com 1.10,2013-01-03 21:41:00,
2013-01-03 16:56:00,34.9,31.0,30.24,West,264,0.0,1.0,84,0.00,,,0.00,weatherlink.com 1.10,2013-01-03 21:56:00,
2013-01-03 17:11:00,34.4,30.0,30.24,West,269,0.0,0.0,84,0.00,,,0.00,weatherlink.com 1.10,2013-01-03 22:11:00,
2013-01-03 17:26:00,33.6,30.0,30.25,West,269,0.0,0.0,86,0.00,,,0.00,weatherlink.com 1.10,2013-01-03 22:26:00,
2013-01-03 17:41:00,32.4,29.0,30.25,West,267,0.0,0.0,87,0.00,,,0.00,weatherlink.com 1.10,2013-01-03 22:41:00,
2013-01-03 17:56:00,31.3,29.0,30.26,West,267,0.0,0.0,89,0.00,,,0.00,weatherlink.com 1.10,2013-01-03 22:56:00,
2013-01-03 18:11:00,30.4,28.0,30.26,SSW,203,0.0,0.0,90,0.00,,,0.00,weatherlink.com 1.10,2013-01-03 23:11:00,
2013-01-03 18:26:00,30.9,28.0,30.27,SW,231,0.0,0.0,88,0.00,,,0.00,weatherlink.com 1.10,2013-01-03 23:26:00,
2013-01-03 18:41:00,30.6,28.0,30.28,SW,232,0.0,0.0,88,0.00,,,0.00,weatherlink.com 1.10,2013-01-03 23:41:00,
2013-01-03 18:56:00,29.6,27.0,30.28,SW,232,0.0,0.0,89,0.00,,,0.00,weatherlink.com 1.10,2013-01-03 23:56:00,
2013-01-03 19:11:00,29.6,27.0,30.28,SW,231,0.0,0.0,89,0.00,,,0.00,weatherlink.com 1.10,2013-01-04 00:11:00,
2013-01-03 19:26:00,30.3,27.0,30.28,WSW,238,0.0,0.0,87,0.00,,,0.00,weatherlink.com 1.10,2013-01-04 00:26:00,
2013-01-03 19:41:00,29.7,26.0,30.29,SW,224,0.0,0.0,87,0.00,,,0.00,weatherlink.com 1.10,2013-01-04 00:41:00,
2013-01-03 19:56:00,28.8,26.0,30.29,SW,225,0.0,0.0,89,0.00,,,0.00,weatherlink.com 1.10,2013-01-04 00:56:00,
2013-01-03 20:11:00,28.5,26.0,30.29,SW,225,0.0,0.0,91,0.00,,,0.00,weatherlink.com 1.10,2013-01-04 01:11:00,
2013-01-03 20:26:00,28.5,26.0,30.29,SW,226,0.0,0.0,89,0.00,,,0.00,weatherlink.com 1.10,2013-01-04 01:26:00,
2013-01-03 20:41:00,28.1,26.0,30.29,SW,225,0.0,0.0,90,0.00,,,0.00,weatherlink.com 1.10,2013-01-04 01:41:00,
2013-01-03 20:56:00,28.0,26.0,30.30,SW,225,0.0,0.0,90,0.00,,,0.00,weatherlink.com 1.10,2013-01-04 01:56:00,
2013-01-03 21:11:00,28.4,26.0,30.30,East,91,0.0,0.0,89,0.00,,,0.00,weatherlink.com 1.10,2013-01-04 02:11:00,
2013-01-03 21:26:00,29.1,25.0,30.30,West,273,0.0,0.0,86,0.00,,,0.00,weatherlink.com 1.10,2013-01-04 02:26:00,
2013-01-03 21:41:00,29.3,25.0,30.30,West,273,0.0,0.0,85,0.00,,,0.00,weatherlink.com 1.10,2013-01-04 02:41:00,
2013-01-03 21:56:00,28.7,25.0,30.30,West,274,0.0,0.0,86,0.00,,,0.00,weatherlink.com 1.10,2013-01-04 02:56:00,
2013-01-03 22:11:00,29.0,25.0,30.30,WNW,290,0.0,0.0,84,0.00,,,0.00,weatherlink.com 1.10,2013-01-04 03:11:00,
2013-01-03 22:26:00,30.0,25.0,30.30,NE,47,0.0,2.0,82,0.00,,,0.00,weatherlink.com 1.10,2013-01-04 03:26:00,
2013-01-03 22:41:00,31.1,25.0,30.32,West,264,0.0,4.0,79,0.00,,,0.00,weatherlink.com 1.10,2013-01-04 03:41:00,
2013-01-03 22:56:00,28.8,25.0,30.33,SE,127,0.0,1.0,86,0.00,,,0.00,weatherlink.com 1.10,2013-01-04 03:56:00,
2013-01-03 23:12:00,27.1,25.0,30.34,SE,127,0.0,0.0,90,0.00,,,0.00,weatherlink.com 1.10,2013-01-04 04:12:00,
2013-01-03 23:27:00,26.2,25.0,30.34,SE,127,0.0,0.0,93,0.00,,,0.00,weatherlink.com 1.10,2013-01-04 04:27:00,
2013-01-03 23:42:00,26.0,25.0,30.35,SSE,162,0.0,0.0,94,0.00,,,0.00,weatherlink.com 1.10,2013-01-04 04:42:00,
2013-01-03 23:57:00,25.6,24.0,30.36,SSE,162,0.0,0.0,94,0.00,,,0.00,weatherlink.com 1.10,2013-01-04 04:57:00,